sensor_id;sensor_type;location;lat;lon;timestamp;P1;durP1;ratioP1;P2;durP2;ratioP2
42244;SDS011;27912;51.828;5.688;2023-04-24T00:00:21;17.90;;;13.32;;
42244;SDS011;27912;51.828;5.688;2023-04-24T00:02:47;19.27;;;15.10;;
42244;SDS011;27912;51.828;5.688;2023-04-24T00:05:13;23.02;;;16.88;;
42244;SDS011;27912;51.828;5.688;2023-04-24T00:07:40;24.45;;;17.48;;
42244;SDS011;27912;51.828;5.688;2023-04-24T00:10:07;20.73;;;14.95;;
42244;SDS011;27912;51.828;5.688;2023-04-24T00:12:33;20.52;;;15.40;;
42244;SDS011;27912;51.828;5.688;2023-04-24T00:14:59;17.20;;;13.38;;
42244;SDS011;27912;51.828;5.688;2023-04-24T00:17:24;23.63;;;15.50;;
42244;SDS011;27912;51.828;5.688;2023-04-24T00:19:50;21.13;;;15.82;;
42244;SDS011;27912;51.828;5.688;2023-04-24T00:22:16;23.77;;;18.05;;
42244;SDS011;27912;51.828;5.688;2023-04-24T00:24:42;27.80;;;19.25;;
42244;SDS011;27912;51.828;5.688;2023-04-24T00:27:08;30.55;;;20.75;;
42244;SDS011;27912;51.828;5.688;2023-04-24T00:29:33;27.30;;;19.13;;
42244;SDS011;27912;51.828;5.688;2023-04-24T00:31:59;26.05;;;18.65;;
42244;SDS011;27912;51.828;5.688;2023-04-24T00:34:25;26.88;;;17.38;;
42244;SDS011;27912;51.828;5.688;2023-04-24T00:36:50;26.10;;;18.23;;
42244;SDS011;27912;51.828;5.688;2023-04-24T00:39:17;28.05;;;19.02;;
42244;SDS011;27912;51.828;5.688;2023-04-24T00:41:43;28.88;;;19.67;;
42244;SDS011;27912;51.828;5.688;2023-04-24T00:44:10;28.33;;;19.35;;
42244;SDS011;27912;51.828;5.688;2023-04-24T00:46:36;28.48;;;18.30;;
42244;SDS011;27912;51.828;5.688;2023-04-24T00:49:02;30.20;;;19.58;;
42244;SDS011;27912;51.828;5.688;2023-04-24T00:51:27;29.35;;;20.13;;
42244;SDS011;27912;51.828;5.688;2023-04-24T00:53:53;30.15;;;20.08;;
42244;SDS011;27912;51.828;5.688;2023-04-24T00:56:18;30.83;;;20.80;;
42244;SDS011;27912;51.828;5.688;2023-04-24T00:58:44;28.30;;;19.90;;
42244;SDS011;27912;51.828;5.688;2023-04-24T01:01:10;30.63;;;21.40;;
42244;SDS011;27912;51.828;5.688;2023-04-24T01:03:36;26.40;;;20.20;;
42244;SDS011;27912;51.828;5.688;2023-04-24T01:06:03;27.40;;;20.50;;
42244;SDS011;27912;51.828;5.688;2023-04-24T01:08:30;25.95;;;20.15;;
42244;SDS011;27912;51.828;5.688;2023-04-24T01:10:57;22.73;;;17.48;;
42244;SDS011;27912;51.828;5.688;2023-04-24T01:13:22;24.73;;;18.83;;
42244;SDS011;27912;51.828;5.688;2023-04-24T01:15:48;24.17;;;17.58;;
42244;SDS011;27912;51.828;5.688;2023-04-24T01:18:14;23.77;;;18.42;;
42244;SDS011;27912;51.828;5.688;2023-04-24T01:20:41;25.48;;;19.17;;
42244;SDS011;27912;51.828;5.688;2023-04-24T01:23:08;25.05;;;19.38;;
42244;SDS011;27912;51.828;5.688;2023-04-24T01:25:34;23.15;;;17.10;;
42244;SDS011;27912;51.828;5.688;2023-04-24T01:28:00;24.60;;;18.70;;
42244;SDS011;27912;51.828;5.688;2023-04-24T01:30:26;25.80;;;18.27;;
42244;SDS011;27912;51.828;5.688;2023-04-24T01:32:52;27.08;;;18.75;;
42244;SDS011;27912;51.828;5.688;2023-04-24T01:35:19;25.27;;;18.83;;
42244;SDS011;27912;51.828;5.688;2023-04-24T01:37:45;25.77;;;19.88;;
42244;SDS011;27912;51.828;5.688;2023-04-24T01:40:11;27.17;;;19.23;;
42244;SDS011;27912;51.828;5.688;2023-04-24T01:42:36;29.70;;;20.55;;
42244;SDS011;27912;51.828;5.688;2023-04-24T01:45:03;30.98;;;22.38;;
42244;SDS011;27912;51.828;5.688;2023-04-24T01:47:30;30.05;;;21.92;;
42244;SDS011;27912;51.828;5.688;2023-04-24T01:49:57;34.80;;;22.52;;
42244;SDS011;27912;51.828;5.688;2023-04-24T01:52:23;33.35;;;23.52;;
42244;SDS011;27912;51.828;5.688;2023-04-24T01:54:48;38.45;;;24.95;;
42244;SDS011;27912;51.828;5.688;2023-04-24T01:57:14;37.38;;;25.77;;
42244;SDS011;27912;51.828;5.688;2023-04-24T01:59:41;35.97;;;26.25;;
42244;SDS011;27912;51.828;5.688;2023-04-24T02:02:06;39.03;;;25.35;;
42244;SDS011;27912;51.828;5.688;2023-04-24T02:04:33;32.40;;;24.23;;
42244;SDS011;27912;51.828;5.688;2023-04-24T02:06:59;33.40;;;24.30;;
42244;SDS011;27912;51.828;5.688;2023-04-24T02:09:24;36.45;;;25.25;;
42244;SDS011;27912;51.828;5.688;2023-04-24T02:11:50;34.13;;;24.40;;
42244;SDS011;27912;51.828;5.688;2023-04-24T02:14:15;35.92;;;24.80;;
42244;SDS011;27912;51.828;5.688;2023-04-24T02:16:41;35.30;;;23.77;;
42244;SDS011;27912;51.828;5.688;2023-04-24T02:19:07;33.88;;;23.50;;
42244;SDS011;27912;51.828;5.688;2023-04-24T02:21:33;32.58;;;22.10;;
42244;SDS011;27912;51.828;5.688;2023-04-24T02:23:58;29.88;;;21.15;;
42244;SDS011;27912;51.828;5.688;2023-04-24T02:26:24;30.73;;;22.58;;
42244;SDS011;27912;51.828;5.688;2023-04-24T02:28:50;35.47;;;24.20;;
42244;SDS011;27912;51.828;5.688;2023-04-24T02:31:15;30.77;;;21.35;;
42244;SDS011;27912;51.828;5.688;2023-04-24T02:33:41;33.75;;;21.77;;
42244;SDS011;27912;51.828;5.688;2023-04-24T02:36:06;36.47;;;23.10;;
42244;SDS011;27912;51.828;5.688;2023-04-24T02:38:32;29.17;;;22.45;;
42244;SDS011;27912;51.828;5.688;2023-04-24T02:40:58;32.63;;;21.75;;
42244;SDS011;27912;51.828;5.688;2023-04-24T02:43:23;28.55;;;20.80;;
42244;SDS011;27912;51.828;5.688;2023-04-24T02:45:49;33.45;;;22.38;;
42244;SDS011;27912;51.828;5.688;2023-04-24T02:48:14;30.15;;;21.95;;
42244;SDS011;27912;51.828;5.688;2023-04-24T02:50:40;32.28;;;23.27;;
42244;SDS011;27912;51.828;5.688;2023-04-24T02:53:06;31.63;;;23.73;;
42244;SDS011;27912;51.828;5.688;2023-04-24T02:55:31;36.63;;;25.77;;
42244;SDS011;27912;51.828;5.688;2023-04-24T02:57:57;33.42;;;24.70;;
42244;SDS011;27912;51.828;5.688;2023-04-24T03:00:23;40.20;;;27.13;;
42244;SDS011;27912;51.828;5.688;2023-04-24T03:02:48;40.78;;;27.60;;
42244;SDS011;27912;51.828;5.688;2023-04-24T03:05:14;38.92;;;27.73;;
42244;SDS011;27912;51.828;5.688;2023-04-24T03:07:40;46.40;;;29.63;;
42244;SDS011;27912;51.828;5.688;2023-04-24T03:10:06;39.83;;;29.50;;
42244;SDS011;27912;51.828;5.688;2023-04-24T03:12:34;45.35;;;30.55;;
42244;SDS011;27912;51.828;5.688;2023-04-24T03:14:59;50.47;;;33.67;;
42244;SDS011;27912;51.828;5.688;2023-04-24T03:17:25;51.15;;;33.65;;
42244;SDS011;27912;51.828;5.688;2023-04-24T03:19:50;49.47;;;33.58;;
42244;SDS011;27912;51.828;5.688;2023-04-24T03:22:16;50.97;;;35.13;;
42244;SDS011;27912;51.828;5.688;2023-04-24T03:24:41;45.13;;;30.42;;
42244;SDS011;27912;51.828;5.688;2023-04-24T03:27:07;49.13;;;32.38;;
42244;SDS011;27912;51.828;5.688;2023-04-24T03:29:32;50.22;;;31.73;;
42244;SDS011;27912;51.828;5.688;2023-04-24T03:31:58;43.58;;;29.83;;
42244;SDS011;27912;51.828;5.688;2023-04-24T03:34:24;51.15;;;32.72;;
42244;SDS011;27912;51.828;5.688;2023-04-24T03:36:49;54.92;;;32.92;;
42244;SDS011;27912;51.828;5.688;2023-04-24T03:39:15;48.10;;;31.35;;
42244;SDS011;27912;51.828;5.688;2023-04-24T03:41:41;50.63;;;31.42;;
42244;SDS011;27912;51.828;5.688;2023-04-24T03:44:06;44.67;;;31.17;;
42244;SDS011;27912;51.828;5.688;2023-04-24T03:46:32;46.55;;;32.22;;
42244;SDS011;27912;51.828;5.688;2023-04-24T03:48:57;45.50;;;30.42;;
42244;SDS011;27912;51.828;5.688;2023-04-24T03:51:23;43.20;;;29.08;;
42244;SDS011;27912;51.828;5.688;2023-04-24T03:53:49;42.05;;;28.75;;
42244;SDS011;27912;51.828;5.688;2023-04-24T03:56:14;46.75;;;32.17;;
42244;SDS011;27912;51.828;5.688;2023-04-24T03:58:40;45.00;;;28.83;;
42244;SDS011;27912;51.828;5.688;2023-04-24T04:01:05;41.63;;;27.38;;
42244;SDS011;27912;51.828;5.688;2023-04-24T04:03:31;43.03;;;27.63;;
42244;SDS011;27912;51.828;5.688;2023-04-24T04:05:57;38.97;;;28.27;;
42244;SDS011;27912;51.828;5.688;2023-04-24T04:08:22;43.70;;;28.45;;
42244;SDS011;27912;51.828;5.688;2023-04-24T04:10:48;43.25;;;27.35;;
42244;SDS011;27912;51.828;5.688;2023-04-24T04:13:13;40.35;;;26.85;;
42244;SDS011;27912;51.828;5.688;2023-04-24T04:15:39;38.67;;;26.60;;
42244;SDS011;27912;51.828;5.688;2023-04-24T04:18:05;40.88;;;27.20;;
42244;SDS011;27912;51.828;5.688;2023-04-24T04:20:30;37.95;;;28.35;;
42244;SDS011;27912;51.828;5.688;2023-04-24T04:22:56;39.22;;;25.80;;
42244;SDS011;27912;51.828;5.688;2023-04-24T04:25:21;37.42;;;24.50;;
42244;SDS011;27912;51.828;5.688;2023-04-24T04:27:48;38.95;;;26.08;;
42244;SDS011;27912;51.828;5.688;2023-04-24T04:30:14;40.42;;;25.50;;
42244;SDS011;27912;51.828;5.688;2023-04-24T04:32:40;38.38;;;24.98;;
42244;SDS011;27912;51.828;5.688;2023-04-24T04:35:05;37.47;;;25.80;;
42244;SDS011;27912;51.828;5.688;2023-04-24T04:37:34;33.53;;;23.80;;
42244;SDS011;27912;51.828;5.688;2023-04-24T04:40:00;32.83;;;24.05;;
42244;SDS011;27912;51.828;5.688;2023-04-24T04:42:26;34.58;;;24.60;;
42244;SDS011;27912;51.828;5.688;2023-04-24T04:44:52;34.55;;;23.88;;
42244;SDS011;27912;51.828;5.688;2023-04-24T04:47:18;34.42;;;23.60;;
42244;SDS011;27912;51.828;5.688;2023-04-24T04:49:46;30.27;;;21.45;;
42244;SDS011;27912;51.828;5.688;2023-04-24T04:52:13;31.45;;;21.38;;
42244;SDS011;27912;51.828;5.688;2023-04-24T04:54:38;31.00;;;21.35;;
42244;SDS011;27912;51.828;5.688;2023-04-24T04:57:04;34.60;;;20.77;;
42244;SDS011;27912;51.828;5.688;2023-04-24T04:59:30;27.25;;;18.65;;
42244;SDS011;27912;51.828;5.688;2023-04-24T05:01:56;25.42;;;19.27;;
42244;SDS011;27912;51.828;5.688;2023-04-24T05:04:21;30.17;;;20.77;;
42244;SDS011;27912;51.828;5.688;2023-04-24T05:06:47;29.35;;;19.98;;
42244;SDS011;27912;51.828;5.688;2023-04-24T05:09:12;28.25;;;20.73;;
42244;SDS011;27912;51.828;5.688;2023-04-24T05:11:38;28.13;;;19.60;;
42244;SDS011;27912;51.828;5.688;2023-04-24T05:14:03;27.20;;;20.05;;
42244;SDS011;27912;51.828;5.688;2023-04-24T05:16:29;26.63;;;18.65;;
42244;SDS011;27912;51.828;5.688;2023-04-24T05:18:55;28.70;;;19.08;;
42244;SDS011;27912;51.828;5.688;2023-04-24T05:21:21;26.05;;;18.05;;
42244;SDS011;27912;51.828;5.688;2023-04-24T05:23:47;26.52;;;18.95;;
42244;SDS011;27912;51.828;5.688;2023-04-24T05:26:13;25.85;;;18.60;;
42244;SDS011;27912;51.828;5.688;2023-04-24T05:28:38;24.02;;;16.67;;
42244;SDS011;27912;51.828;5.688;2023-04-24T05:31:04;20.85;;;15.27;;
42244;SDS011;27912;51.828;5.688;2023-04-24T05:33:29;20.40;;;14.70;;
42244;SDS011;27912;51.828;5.688;2023-04-24T05:35:55;18.27;;;12.10;;
42244;SDS011;27912;51.828;5.688;2023-04-24T05:38:21;15.48;;;11.10;;
42244;SDS011;27912;51.828;5.688;2023-04-24T05:40:46;15.40;;;10.40;;
42244;SDS011;27912;51.828;5.688;2023-04-24T05:43:12;12.77;;;8.52;;
42244;SDS011;27912;51.828;5.688;2023-04-24T05:45:38;15.43;;;9.57;;
42244;SDS011;27912;51.828;5.688;2023-04-24T05:48:04;14.05;;;9.07;;
42244;SDS011;27912;51.828;5.688;2023-04-24T05:50:30;15.90;;;9.43;;
42244;SDS011;27912;51.828;5.688;2023-04-24T05:52:56;13.35;;;7.72;;
42244;SDS011;27912;51.828;5.688;2023-04-24T05:55:26;12.07;;;7.10;;
42244;SDS011;27912;51.828;5.688;2023-04-24T05:57:52;11.40;;;6.95;;
42244;SDS011;27912;51.828;5.688;2023-04-24T06:00:17;7.78;;;5.43;;
42244;SDS011;27912;51.828;5.688;2023-04-24T06:02:44;6.70;;;4.22;;
42244;SDS011;27912;51.828;5.688;2023-04-24T06:05:11;5.97;;;3.25;;
42244;SDS011;27912;51.828;5.688;2023-04-24T06:07:36;5.13;;;2.78;;
42244;SDS011;27912;51.828;5.688;2023-04-24T06:10:02;3.22;;;2.40;;
42244;SDS011;27912;51.828;5.688;2023-04-24T06:12:28;4.47;;;1.98;;
42244;SDS011;27912;51.828;5.688;2023-04-24T06:14:53;4.47;;;1.98;;
42244;SDS011;27912;51.828;5.688;2023-04-24T06:17:20;2.92;;;1.30;;
42244;SDS011;27912;51.828;5.688;2023-04-24T06:19:46;2.17;;;1.30;;
42244;SDS011;27912;51.828;5.688;2023-04-24T06:22:12;2.63;;;1.00;;
42244;SDS011;27912;51.828;5.688;2023-04-24T06:24:41;2.50;;;1.20;;
42244;SDS011;27912;51.828;5.688;2023-04-24T06:27:06;2.88;;;0.70;;
42244;SDS011;27912;51.828;5.688;2023-04-24T06:29:33;2.53;;;0.70;;
42244;SDS011;27912;51.828;5.688;2023-04-24T06:31:59;2.22;;;0.50;;
42244;SDS011;27912;51.828;5.688;2023-04-24T06:34:27;1.20;;;0.40;;
42244;SDS011;27912;51.828;5.688;2023-04-24T06:36:53;0.70;;;0.30;;
42244;SDS011;27912;51.828;5.688;2023-04-24T06:39:20;1.30;;;0.50;;
42244;SDS011;27912;51.828;5.688;2023-04-24T06:41:45;0.75;;;0.20;;
42244;SDS011;27912;51.828;5.688;2023-04-24T06:44:11;2.45;;;0.20;;
42244;SDS011;27912;51.828;5.688;2023-04-24T06:46:36;1.10;;;0.20;;
42244;SDS011;27912;51.828;5.688;2023-04-24T06:49:02;0.98;;;0.30;;
42244;SDS011;27912;51.828;5.688;2023-04-24T06:51:27;0.68;;;0.20;;
42244;SDS011;27912;51.828;5.688;2023-04-24T06:53:53;0.35;;;0.10;;
42244;SDS011;27912;51.828;5.688;2023-04-24T06:56:20;0.35;;;0.13;;
42244;SDS011;27912;51.828;5.688;2023-04-24T06:58:46;1.13;;;0.20;;
42244;SDS011;27912;51.828;5.688;2023-04-24T07:01:12;0.35;;;0.13;;
42244;SDS011;27912;51.828;5.688;2023-04-24T07:03:37;0.80;;;0.30;;
42244;SDS011;27912;51.828;5.688;2023-04-24T07:06:04;2.30;;;0.30;;
42244;SDS011;27912;51.828;5.688;2023-04-24T07:08:30;2.25;;;0.40;;
42244;SDS011;27912;51.828;5.688;2023-04-24T07:10:55;1.63;;;0.60;;
42244;SDS011;27912;51.828;5.688;2023-04-24T07:13:22;1.60;;;0.70;;
42244;SDS011;27912;51.828;5.688;2023-04-24T07:15:48;1.92;;;0.85;;
42244;SDS011;27912;51.828;5.688;2023-04-24T07:18:18;3.30;;;0.60;;
42244;SDS011;27912;51.828;5.688;2023-04-24T07:20:45;1.23;;;0.50;;
42244;SDS011;27912;51.828;5.688;2023-04-24T07:23:10;1.77;;;0.70;;
42244;SDS011;27912;51.828;5.688;2023-04-24T07:25:36;2.58;;;0.90;;
42244;SDS011;27912;51.828;5.688;2023-04-24T07:28:03;5.90;;;2.72;;
42244;SDS011;27912;51.828;5.688;2023-04-24T07:30:29;7.28;;;3.83;;
42244;SDS011;27912;51.828;5.688;2023-04-24T07:32:55;11.45;;;6.90;;
42244;SDS011;27912;51.828;5.688;2023-04-24T07:35:21;13.43;;;8.35;;
42244;SDS011;27912;51.828;5.688;2023-04-24T07:37:46;15.15;;;10.45;;
42244;SDS011;27912;51.828;5.688;2023-04-24T07:40:13;14.27;;;9.52;;
42244;SDS011;27912;51.828;5.688;2023-04-24T07:42:38;19.60;;;12.65;;
42244;SDS011;27912;51.828;5.688;2023-04-24T07:45:04;20.50;;;12.82;;
42244;SDS011;27912;51.828;5.688;2023-04-24T07:47:31;17.23;;;11.32;;
42244;SDS011;27912;51.828;5.688;2023-04-24T07:49:57;24.30;;;14.38;;
42244;SDS011;27912;51.828;5.688;2023-04-24T07:52:23;26.08;;;13.80;;
42244;SDS011;27912;51.828;5.688;2023-04-24T07:54:50;24.63;;;13.57;;
42244;SDS011;27912;51.828;5.688;2023-04-24T07:57:17;21.73;;;13.70;;
42244;SDS011;27912;51.828;5.688;2023-04-24T07:59:43;26.33;;;13.88;;
42244;SDS011;27912;51.828;5.688;2023-04-24T08:02:08;23.98;;;12.55;;
42244;SDS011;27912;51.828;5.688;2023-04-24T08:04:34;23.70;;;13.82;;
42244;SDS011;27912;51.828;5.688;2023-04-24T08:07:00;27.55;;;14.02;;
42244;SDS011;27912;51.828;5.688;2023-04-24T08:09:25;31.10;;;15.82;;
42244;SDS011;27912;51.828;5.688;2023-04-24T08:11:51;29.33;;;15.57;;
42244;SDS011;27912;51.828;5.688;2023-04-24T08:14:18;31.02;;;15.80;;
42244;SDS011;27912;51.828;5.688;2023-04-24T08:16:43;31.85;;;16.55;;
42244;SDS011;27912;51.828;5.688;2023-04-24T08:19:09;38.47;;;20.00;;
42244;SDS011;27912;51.828;5.688;2023-04-24T08:21:35;29.80;;;15.25;;
42244;SDS011;27912;51.828;5.688;2023-04-24T08:24:00;45.53;;;17.67;;
42244;SDS011;27912;51.828;5.688;2023-04-24T08:26:30;43.78;;;17.02;;
42244;SDS011;27912;51.828;5.688;2023-04-24T08:28:55;46.45;;;18.15;;
42244;SDS011;27912;51.828;5.688;2023-04-24T08:31:21;52.17;;;19.40;;
42244;SDS011;27912;51.828;5.688;2023-04-24T08:33:47;47.55;;;17.65;;
42244;SDS011;27912;51.828;5.688;2023-04-24T08:36:13;49.42;;;17.40;;
42244;SDS011;27912;51.828;5.688;2023-04-24T08:38:38;54.67;;;17.10;;
42244;SDS011;27912;51.828;5.688;2023-04-24T08:41:04;57.85;;;20.15;;
42244;SDS011;27912;51.828;5.688;2023-04-24T08:43:33;53.70;;;18.05;;
42244;SDS011;27912;51.828;5.688;2023-04-24T08:46:01;55.45;;;17.33;;
42244;SDS011;27912;51.828;5.688;2023-04-24T08:48:28;37.97;;;12.20;;
42244;SDS011;27912;51.828;5.688;2023-04-24T08:50:54;34.13;;;11.13;;
42244;SDS011;27912;51.828;5.688;2023-04-24T08:53:21;35.53;;;8.90;;
42244;SDS011;27912;51.828;5.688;2023-04-24T08:55:48;32.83;;;10.43;;
42244;SDS011;27912;51.828;5.688;2023-04-24T08:58:16;33.13;;;11.20;;
42244;SDS011;27912;51.828;5.688;2023-04-24T09:00:43;38.28;;;11.15;;
42244;SDS011;27912;51.828;5.688;2023-04-24T09:03:11;35.15;;;10.30;;
42244;SDS011;27912;51.828;5.688;2023-04-24T09:05:40;30.42;;;8.75;;
42244;SDS011;27912;51.828;5.688;2023-04-24T09:08:10;36.40;;;9.63;;
42244;SDS011;27912;51.828;5.688;2023-04-24T09:10:38;38.28;;;10.82;;
42244;SDS011;27912;51.828;5.688;2023-04-24T09:13:04;30.63;;;8.23;;
42244;SDS011;27912;51.828;5.688;2023-04-24T09:15:30;22.70;;;6.15;;
42244;SDS011;27912;51.828;5.688;2023-04-24T09:17:56;38.28;;;7.72;;
42244;SDS011;27912;51.828;5.688;2023-04-24T09:20:22;29.20;;;6.13;;
42244;SDS011;27912;51.828;5.688;2023-04-24T09:22:48;23.13;;;7.40;;
42244;SDS011;27912;51.828;5.688;2023-04-24T09:25:18;25.80;;;6.45;;
42244;SDS011;27912;51.828;5.688;2023-04-24T09:27:44;23.00;;;6.18;;
42244;SDS011;27912;51.828;5.688;2023-04-24T09:30:11;25.88;;;6.50;;
42244;SDS011;27912;51.828;5.688;2023-04-24T09:32:37;24.10;;;6.35;;
42244;SDS011;27912;51.828;5.688;2023-04-24T09:35:12;26.33;;;7.25;;
42244;SDS011;27912;51.828;5.688;2023-04-24T09:37:46;26.02;;;5.90;;
42244;SDS011;27912;51.828;5.688;2023-04-24T09:45:17;23.67;;;6.18;;
42244;SDS011;27912;51.828;5.688;2023-04-24T09:47:43;27.40;;;6.32;;
42244;SDS011;27912;51.828;5.688;2023-04-24T09:50:09;23.73;;;5.53;;
42244;SDS011;27912;51.828;5.688;2023-04-24T09:52:38;15.98;;;5.38;;
42244;SDS011;27912;51.828;5.688;2023-04-24T09:55:10;28.60;;;5.82;;
42244;SDS011;27912;51.828;5.688;2023-04-24T09:57:46;22.45;;;5.22;;
42244;SDS011;27912;51.828;5.688;2023-04-24T10:00:29;24.08;;;6.10;;
42244;SDS011;27912;51.828;5.688;2023-04-24T10:03:00;24.33;;;4.88;;
42244;SDS011;27912;51.828;5.688;2023-04-24T10:08:04;18.00;;;3.80;;
42244;SDS011;27912;51.828;5.688;2023-04-24T10:10:32;16.40;;;4.60;;
42244;SDS011;27912;51.828;5.688;2023-04-24T10:12:59;12.68;;;4.03;;
42244;SDS011;27912;51.828;5.688;2023-04-24T10:15:26;14.70;;;3.78;;
42244;SDS011;27912;51.828;5.688;2023-04-24T10:17:52;14.80;;;3.00;;
42244;SDS011;27912;51.828;5.688;2023-04-24T10:20:19;13.73;;;3.47;;
42244;SDS011;27912;51.828;5.688;2023-04-24T10:22:50;12.52;;;3.33;;
42244;SDS011;27912;51.828;5.688;2023-04-24T10:25:18;11.73;;;3.03;;
42244;SDS011;27912;51.828;5.688;2023-04-24T10:27:49;11.95;;;2.92;;
42244;SDS011;27912;51.828;5.688;2023-04-24T10:30:15;15.70;;;3.70;;
42244;SDS011;27912;51.828;5.688;2023-04-24T10:32:41;10.00;;;1.95;;
42244;SDS011;27912;51.828;5.688;2023-04-24T10:35:08;12.15;;;2.63;;
42244;SDS011;27912;51.828;5.688;2023-04-24T10:37:38;14.35;;;2.72;;
42244;SDS011;27912;51.828;5.688;2023-04-24T10:40:07;7.43;;;2.33;;
42244;SDS011;27912;51.828;5.688;2023-04-24T10:42:34;12.52;;;2.65;;
42244;SDS011;27912;51.828;5.688;2023-04-24T10:45:05;14.23;;;2.38;;
42244;SDS011;27912;51.828;5.688;2023-04-24T10:47:39;11.40;;;2.20;;
42244;SDS011;27912;51.828;5.688;2023-04-24T10:50:08;13.18;;;2.55;;
42244;SDS011;27912;51.828;5.688;2023-04-24T10:52:46;9.13;;;1.35;;
42244;SDS011;27912;51.828;5.688;2023-04-24T10:55:13;11.35;;;1.52;;
42244;SDS011;27912;51.828;5.688;2023-04-24T10:57:40;6.97;;;1.27;;
42244;SDS011;27912;51.828;5.688;2023-04-24T11:00:26;3.80;;;1.13;;
42244;SDS011;27912;51.828;5.688;2023-04-24T11:02:52;7.97;;;1.35;;
42244;SDS011;27912;51.828;5.688;2023-04-24T11:05:19;6.47;;;0.90;;
42244;SDS011;27912;51.828;5.688;2023-04-24T11:10:43;5.00;;;0.80;;
42244;SDS011;27912;51.828;5.688;2023-04-24T11:13:10;3.33;;;0.73;;
42244;SDS011;27912;51.828;5.688;2023-04-24T11:15:45;9.57;;;0.70;;
42244;SDS011;27912;51.828;5.688;2023-04-24T11:18:45;6.03;;;0.73;;
42244;SDS011;27912;51.828;5.688;2023-04-24T11:21:16;7.32;;;0.77;;
42244;SDS011;27912;51.828;5.688;2023-04-24T11:23:42;5.05;;;1.40;;
42244;SDS011;27912;51.828;5.688;2023-04-24T11:26:09;8.07;;;0.70;;
42244;SDS011;27912;51.828;5.688;2023-04-24T11:28:36;6.22;;;0.52;;
42244;SDS011;27912;51.828;5.688;2023-04-24T11:34:11;9.55;;;0.80;;
42244;SDS011;27912;51.828;5.688;2023-04-24T11:36:47;3.58;;;1.10;;
42244;SDS011;27912;51.828;5.688;2023-04-24T11:39:14;7.22;;;0.70;;
42244;SDS011;27912;51.828;5.688;2023-04-24T11:41:40;5.43;;;0.80;;
42244;SDS011;27912;51.828;5.688;2023-04-24T11:44:06;5.28;;;0.80;;
42244;SDS011;27912;51.828;5.688;2023-04-24T11:46:32;5.18;;;0.68;;
42244;SDS011;27912;51.828;5.688;2023-04-24T11:48:58;8.55;;;1.25;;
42244;SDS011;27912;51.828;5.688;2023-04-24T11:51:25;5.70;;;0.70;;
42244;SDS011;27912;51.828;5.688;2023-04-24T11:53:55;8.52;;;0.73;;
42244;SDS011;27912;51.828;5.688;2023-04-24T11:56:24;4.38;;;0.60;;
42244;SDS011;27912;51.828;5.688;2023-04-24T11:58:53;5.50;;;0.70;;
42244;SDS011;27912;51.828;5.688;2023-04-24T12:01:19;5.55;;;0.85;;
42244;SDS011;27912;51.828;5.688;2023-04-24T12:03:49;3.72;;;0.40;;
42244;SDS011;27912;51.828;5.688;2023-04-24T12:06:16;2.03;;;0.40;;
42244;SDS011;27912;51.828;5.688;2023-04-24T12:08:45;3.17;;;0.30;;
42244;SDS011;27912;51.828;5.688;2023-04-24T12:11:14;4.95;;;0.52;;
42244;SDS011;27912;51.828;5.688;2023-04-24T12:13:41;2.72;;;0.30;;
42244;SDS011;27912;51.828;5.688;2023-04-24T12:16:06;6.35;;;0.50;;
42244;SDS011;27912;51.828;5.688;2023-04-24T12:18:32;4.53;;;0.40;;
42244;SDS011;27912;51.828;5.688;2023-04-24T12:23:43;6.15;;;0.98;;
42244;SDS011;27912;51.828;5.688;2023-04-24T12:26:10;7.50;;;0.50;;
42244;SDS011;27912;51.828;5.688;2023-04-24T12:28:36;4.40;;;0.60;;
42244;SDS011;27912;51.828;5.688;2023-04-24T12:31:03;4.57;;;0.60;;
42244;SDS011;27912;51.828;5.688;2023-04-24T12:33:31;5.75;;;0.60;;
42244;SDS011;27912;51.828;5.688;2023-04-24T12:35:58;6.88;;;0.75;;
42244;SDS011;27912;51.828;5.688;2023-04-24T12:38:25;6.50;;;0.60;;
42244;SDS011;27912;51.828;5.688;2023-04-24T12:41:05;6.90;;;0.70;;
42244;SDS011;27912;51.828;5.688;2023-04-24T12:43:31;2.80;;;0.50;;
42244;SDS011;27912;51.828;5.688;2023-04-24T12:45:57;4.72;;;0.73;;
42244;SDS011;27912;51.828;5.688;2023-04-24T12:48:24;6.25;;;0.70;;
42244;SDS011;27912;51.828;5.688;2023-04-24T12:50:50;5.38;;;0.65;;
42244;SDS011;27912;51.828;5.688;2023-04-24T12:53:16;2.22;;;0.40;;
42244;SDS011;27912;51.828;5.688;2023-04-24T12:55:41;5.03;;;0.40;;
42244;SDS011;27912;51.828;5.688;2023-04-24T12:58:07;4.47;;;0.40;;
42244;SDS011;27912;51.828;5.688;2023-04-24T13:00:33;3.30;;;0.40;;
42244;SDS011;27912;51.828;5.688;2023-04-24T13:02:58;4.38;;;0.35;;
42244;SDS011;27912;51.828;5.688;2023-04-24T13:05:24;4.43;;;0.47;;
42244;SDS011;27912;51.828;5.688;2023-04-24T13:07:50;2.10;;;0.30;;
42244;SDS011;27912;51.828;5.688;2023-04-24T13:10:15;6.53;;;0.50;;
42244;SDS011;27912;51.828;5.688;2023-04-24T13:12:41;3.65;;;0.40;;
42244;SDS011;27912;51.828;5.688;2023-04-24T13:15:10;6.05;;;0.52;;
42244;SDS011;27912;51.828;5.688;2023-04-24T13:17:35;6.15;;;0.50;;
42244;SDS011;27912;51.828;5.688;2023-04-24T13:20:01;7.03;;;0.50;;
42244;SDS011;27912;51.828;5.688;2023-04-24T13:22:27;6.07;;;0.40;;
42244;SDS011;27912;51.828;5.688;2023-04-24T13:24:53;3.42;;;0.50;;
42244;SDS011;27912;51.828;5.688;2023-04-24T13:27:19;5.28;;;0.50;;
42244;SDS011;27912;51.828;5.688;2023-04-24T13:29:45;4.35;;;0.57;;
42244;SDS011;27912;51.828;5.688;2023-04-24T13:32:11;4.10;;;0.50;;
42244;SDS011;27912;51.828;5.688;2023-04-24T13:34:37;4.70;;;0.50;;
42244;SDS011;27912;51.828;5.688;2023-04-24T13:37:03;7.55;;;0.60;;
42244;SDS011;27912;51.828;5.688;2023-04-24T13:39:29;4.28;;;0.40;;
42244;SDS011;27912;51.828;5.688;2023-04-24T13:41:55;6.60;;;1.25;;
42244;SDS011;27912;51.828;5.688;2023-04-24T13:44:21;4.15;;;0.55;;
42244;SDS011;27912;51.828;5.688;2023-04-24T13:46:48;10.10;;;0.70;;
42244;SDS011;27912;51.828;5.688;2023-04-24T13:49:15;10.65;;;1.05;;
42244;SDS011;27912;51.828;5.688;2023-04-24T13:51:41;7.30;;;0.98;;
42244;SDS011;27912;51.828;5.688;2023-04-24T13:54:07;7.88;;;0.80;;
42244;SDS011;27912;51.828;5.688;2023-04-24T13:56:33;11.25;;;1.35;;
42244;SDS011;27912;51.828;5.688;2023-04-24T13:58:59;6.03;;;0.95;;
42244;SDS011;27912;51.828;5.688;2023-04-24T14:01:25;10.43;;;1.25;;
42244;SDS011;27912;51.828;5.688;2023-04-24T14:03:51;4.03;;;0.60;;
42244;SDS011;27912;51.828;5.688;2023-04-24T14:06:17;4.60;;;0.60;;
42244;SDS011;27912;51.828;5.688;2023-04-24T14:08:43;4.95;;;0.60;;
42244;SDS011;27912;51.828;5.688;2023-04-24T14:11:09;5.40;;;0.65;;
42244;SDS011;27912;51.828;5.688;2023-04-24T14:13:35;5.00;;;0.70;;
42244;SDS011;27912;51.828;5.688;2023-04-24T14:16:02;7.60;;;0.73;;
42244;SDS011;27912;51.828;5.688;2023-04-24T14:18:28;8.75;;;0.93;;
42244;SDS011;27912;51.828;5.688;2023-04-24T14:20:54;6.35;;;0.90;;
42244;SDS011;27912;51.828;5.688;2023-04-24T14:23:22;6.60;;;0.90;;
42244;SDS011;27912;51.828;5.688;2023-04-24T14:25:47;8.82;;;1.30;;
42244;SDS011;27912;51.828;5.688;2023-04-24T14:28:16;10.50;;;0.90;;
42244;SDS011;27912;51.828;5.688;2023-04-24T14:30:42;10.98;;;1.13;;
42244;SDS011;27912;51.828;5.688;2023-04-24T14:33:08;5.53;;;0.85;;
42244;SDS011;27912;51.828;5.688;2023-04-24T14:35:34;12.63;;;1.95;;
42244;SDS011;27912;51.828;5.688;2023-04-24T14:38:00;8.63;;;1.23;;
42244;SDS011;27912;51.828;5.688;2023-04-24T14:40:25;8.48;;;1.20;;
42244;SDS011;27912;51.828;5.688;2023-04-24T14:42:51;9.95;;;1.15;;
42244;SDS011;27912;51.828;5.688;2023-04-24T14:45:17;7.68;;;1.20;;